Time,TemperatureF,DewpointF,PressureIn,WindDirection,WindDirectionDegrees,WindSpeedMPH,WindSpeedGustMPH,Humidity,HourlyPrecipIn,Conditions,Clouds,dailyrainin,SoftwareType,DateUTC
2013-08-31 00:24:00,77.0,71.0,29.82,WSW,237,6.0,8.0,82,0.00,,,0.13,,2013-08-31 04:24:00,
2013-08-31 00:54:00,76.0,71.0,29.82,WNW,292,7.0,10.0,85,0.00,,,0.13,,2013-08-31 04:54:00,
2013-08-31 01:23:00,75.0,72.0,29.87,NNW,340,5.0,7.0,91,0.00,,,0.13,,2013-08-31 05:23:00,
2013-08-31 01:52:00,74.0,71.0,29.84,ESE,109,0.0,0.0,91,0.00,,,0.13,,2013-08-31 05:52:00,
2013-08-31 02:22:00,74.0,72.0,29.83,NE,38,0.0,0.0,93,0.00,,,0.13,,2013-08-31 06:22:00,
2013-08-31 02:52:00,73.0,71.0,29.84,NNE,16,2.0,8.0,95,0.00,,,0.09,,2013-08-31 06:52:00,
2013-08-31 03:12:00,72.0,70.0,29.84,NNE,23,0.0,0.0,94,0.00,,,0.00,,2013-08-31 07:12:00,
2013-08-31 03:22:00,73.0,71.0,29.83,NNE,23,0.0,0.0,93,0.00,,,0.00,,2013-08-31 07:22:00,
2013-08-31 03:52:00,72.0,70.0,29.83,NNE,23,0.0,0.0,94,0.00,,,0.00,,2013-08-31 07:52:00,
2013-08-31 04:22:00,72.0,70.0,29.84,WNW,289,0.0,0.0,95,0.00,,,0.00,,2013-08-31 08:22:00,
2013-08-31 04:52:00,71.0,70.0,29.84,WSW,251,0.0,0.0,97,0.00,,,0.00,,2013-08-31 08:52:00,
2013-08-31 05:23:00,70.0,69.0,29.84,WSW,251,0.0,0.0,98,0.00,,,0.00,,2013-08-31 09:23:00,
2013-08-31 05:53:00,70.0,70.0,29.85,WSW,251,0.0,0.0,99,0.00,,,0.00,,2013-08-31 09:53:00,
2013-08-31 06:23:00,69.0,69.0,29.85,WSW,251,0.0,0.0,99,0.00,,,0.00,,2013-08-31 10:23:00,
2013-08-31 06:53:00,68.0,68.0,29.85,WSW,251,0.0,0.0,99,0.00,,,0.00,,2013-08-31 10:53:00,
2013-08-31 07:21:00,68.0,68.0,29.85,WSW,251,0.0,0.0,99,0.00,,,0.00,,2013-08-31 11:21:00,
2013-08-31 07:52:00,68.0,68.0,29.85,WSW,251,0.0,0.0,99,0.00,,,0.00,,2013-08-31 11:52:00,
2013-08-31 08:22:00,68.0,68.0,29.85,WSW,251,0.0,0.0,99,0.00,,,0.00,,2013-08-31 12:22:00,
2013-08-31 08:52:00,69.0,69.0,29.85,WSW,251,0.0,0.0,99,0.00,,,0.00,,2013-08-31 12:52:00,
2013-08-31 09:22:00,71.0,71.0,29.85,WSW,251,0.0,0.0,99,0.01,,,0.01,,2013-08-31 13:22:00,
2013-08-31 09:52:00,73.0,72.0,29.85,WSW,251,0.0,0.0,98,0.12,,,0.12,,2013-08-31 13:52:00,
2013-08-31 10:22:00,76.0,72.0,29.85,WSW,251,0.0,0.0,88,0.16,,,0.17,,2013-08-31 14:22:00,
2013-08-31 10:52:00,78.0,72.0,29.85,SE,136,0.0,0.0,81,0.00,,,0.17,,2013-08-31 14:52:00,
2013-08-31 11:23:00,80.0,71.0,29.85,SSE,157,3.0,5.0,75,0.00,,,0.17,,2013-08-31 15:23:00,
2013-08-31 11:55:00,83.0,72.0,29.84,SW,235,6.0,8.0,69,0.00,,,0.17,,2013-08-31 15:55:00,
2013-08-31 12:25:00,84.0,72.0,29.84,South,175,0.0,0.0,67,0.00,,,0.17,,2013-08-31 16:25:00,
2013-08-31 12:52:00,84.0,73.0,29.84,South,175,0.0,0.0,70,0.00,,,0.17,,2013-08-31 16:52:00,
2013-08-31 13:23:00,83.0,73.0,29.83,NE,38,3.0,5.0,71,0.00,,,0.17,,2013-08-31 17:23:00,
2013-08-31 13:53:00,84.0,72.0,29.81,NE,51,5.0,8.0,68,0.00,,,0.17,,2013-08-31 17:53:00,
2013-08-31 14:12:00,85.0,72.0,29.82,ENE,75,0.0,0.0,66,0.00,,,0.17,,2013-08-31 18:12:00,
2013-08-31 14:21:00,85.0,73.0,29.83,NE,38,0.0,0.0,67,0.00,,,0.17,,2013-08-31 18:21:00,
2013-08-31 14:52:00,85.0,72.0,29.84,NNE,17,0.0,0.0,65,0.00,,,0.17,,2013-08-31 18:52:00,
2013-08-31 16:22:00,75.0,75.0,29.83,North,8,1.0,3.0,99,0.01,,,0.63,,2013-08-31 20:22:00,
2013-08-31 16:52:00,76.0,75.0,29.80,East,93,5.0,7.0,98,0.00,,,0.63,,2013-08-31 20:52:00,
2013-08-31 17:22:00,79.0,74.0,29.76,East,84,6.0,7.0,84,0.00,,,0.63,,2013-08-31 21:22:00,
2013-08-31 17:54:00,81.0,73.0,29.75,SE,134,6.0,9.0,78,0.00,,,0.63,,2013-08-31 21:54:00,
2013-08-31 18:23:00,80.0,74.0,29.76,SE,130,3.0,5.0,82,0.00,,,0.63,,2013-08-31 22:23:00,
2013-08-31 18:53:00,79.0,73.0,29.75,South,176,5.0,5.0,83,0.00,,,0.63,,2013-08-31 22:53:00,
2013-08-31 19:22:00,78.0,73.0,29.74,East,84,3.0,5.0,86,0.00,,,0.63,,2013-08-31 23:22:00,
2013-08-31 19:52:00,77.0,74.0,29.77,SE,130,0.0,0.0,91,0.00,,,0.63,,2013-08-31 23:52:00,
2013-08-31 20:22:00,77.0,74.0,29.77,ESE,103,2.0,6.0,92,0.00,,,0.63,,2013-09-01 00:22:00,
2013-08-31 20:52:00,76.0,74.0,29.80,East,95,0.0,0.0,95,0.00,,,0.63,,2013-09-01 00:52:00,
2013-08-31 21:11:00,75.0,74.0,29.79,East,95,0.0,0.0,98,0.00,,,0.63,,2013-09-01 01:11:00,
2013-08-31 21:22:00,75.0,74.0,29.79,East,95,0.0,0.0,98,0.00,,,0.63,,2013-09-01 01:22:00,
2013-08-31 21:52:00,75.0,75.0,29.79,East,95,0.0,0.0,99,0.00,,,0.63,,2013-09-01 01:52:00,
2013-08-31 22:22:00,74.0,74.0,29.78,SSE,147,0.0,0.0,99,0.00,,,0.63,,2013-09-01 02:22:00,
2013-08-31 22:53:00,73.0,73.0,29.79,SSE,147,0.0,0.0,99,0.00,,,0.63,,2013-09-01 02:53:00,
2013-08-31 23:12:00,73.0,73.0,29.80,ENE,76,0.0,0.0,99,0.00,,,0.63,,2013-09-01 03:12:00,
2013-08-31 23:23:00,73.0,73.0,29.80,ENE,76,0.0,0.0,99,0.00,,,0.63,,2013-09-01 03:23:00,
2013-08-31 23:54:00,73.0,73.0,29.80,ENE,76,0.0,0.0,99,0.00,,,0.63,,2013-09-01 03:54:00,